sensor_id;sensor_type;location;lat;lon;timestamp;P1;durP1;ratioP1;P2;durP2;ratioP2
61806;SDS011;47726;52.766;6.606;2022-12-18T00:00:39;75.68;;;34.28;;
61806;SDS011;47726;52.766;6.606;2022-12-18T00:03:05;79.05;;;34.60;;
61806;SDS011;47726;52.766;6.606;2022-12-18T00:05:31;75.55;;;34.92;;
61806;SDS011;47726;52.766;6.606;2022-12-18T00:07:56;78.65;;;34.28;;
61806;SDS011;47726;52.766;6.606;2022-12-18T00:10:22;78.28;;;36.45;;
61806;SDS011;47726;52.766;6.606;2022-12-18T00:12:48;78.70;;;34.90;;
61806;SDS011;47726;52.766;6.606;2022-12-18T00:15:13;79.82;;;35.00;;
61806;SDS011;47726;52.766;6.606;2022-12-18T00:17:39;80.97;;;36.53;;
61806;SDS011;47726;52.766;6.606;2022-12-18T00:20:05;82.80;;;35.25;;
61806;SDS011;47726;52.766;6.606;2022-12-18T00:22:31;83.68;;;35.97;;
61806;SDS011;47726;52.766;6.606;2022-12-18T00:24:56;82.57;;;36.35;;
61806;SDS011;47726;52.766;6.606;2022-12-18T00:27:22;85.50;;;37.10;;
61806;SDS011;47726;52.766;6.606;2022-12-18T00:29:48;85.72;;;36.58;;
61806;SDS011;47726;52.766;6.606;2022-12-18T00:32:14;78.32;;;35.35;;
61806;SDS011;47726;52.766;6.606;2022-12-18T00:34:39;83.68;;;37.08;;
61806;SDS011;47726;52.766;6.606;2022-12-18T00:37:05;78.63;;;36.13;;
61806;SDS011;47726;52.766;6.606;2022-12-18T00:39:30;85.15;;;36.15;;
61806;SDS011;47726;52.766;6.606;2022-12-18T00:41:56;86.18;;;38.05;;
61806;SDS011;47726;52.766;6.606;2022-12-18T00:44:40;83.07;;;37.03;;
61806;SDS011;47726;52.766;6.606;2022-12-18T00:47:06;85.05;;;36.50;;
61806;SDS011;47726;52.766;6.606;2022-12-18T00:49:31;85.85;;;36.72;;
61806;SDS011;47726;52.766;6.606;2022-12-18T00:51:57;77.53;;;36.90;;
61806;SDS011;47726;52.766;6.606;2022-12-18T00:54:23;81.75;;;37.00;;
61806;SDS011;47726;52.766;6.606;2022-12-18T00:56:48;80.65;;;36.97;;
61806;SDS011;47726;52.766;6.606;2022-12-18T00:59:14;83.30;;;36.75;;
61806;SDS011;47726;52.766;6.606;2022-12-18T01:01:40;85.40;;;39.53;;
61806;SDS011;47726;52.766;6.606;2022-12-18T01:04:06;83.70;;;37.40;;
61806;SDS011;47726;52.766;6.606;2022-12-18T01:06:32;79.10;;;35.03;;
61806;SDS011;47726;52.766;6.606;2022-12-18T01:08:57;77.30;;;37.33;;
61806;SDS011;47726;52.766;6.606;2022-12-18T01:11:23;80.53;;;37.80;;
61806;SDS011;47726;52.766;6.606;2022-12-18T01:13:49;83.90;;;38.10;;
61806;SDS011;47726;52.766;6.606;2022-12-18T01:16:17;82.53;;;37.17;;
61806;SDS011;47726;52.766;6.606;2022-12-18T01:18:43;81.43;;;36.80;;
61806;SDS011;47726;52.766;6.606;2022-12-18T01:21:09;87.10;;;38.22;;
61806;SDS011;47726;52.766;6.606;2022-12-18T01:23:36;83.70;;;37.50;;
61806;SDS011;47726;52.766;6.606;2022-12-18T01:26:10;89.00;;;38.28;;
61806;SDS011;47726;52.766;6.606;2022-12-18T01:28:38;90.90;;;38.45;;
61806;SDS011;47726;52.766;6.606;2022-12-18T01:31:15;94.97;;;39.60;;
61806;SDS011;47726;52.766;6.606;2022-12-18T01:36:18;90.90;;;39.08;;
61806;SDS011;47726;52.766;6.606;2022-12-18T01:38:45;94.68;;;39.03;;
61806;SDS011;47726;52.766;6.606;2022-12-18T01:41:12;106.07;;;40.58;;
61806;SDS011;47726;52.766;6.606;2022-12-18T01:46:07;107.22;;;41.95;;
61806;SDS011;47726;52.766;6.606;2022-12-18T01:48:32;100.68;;;39.90;;
61806;SDS011;47726;52.766;6.606;2022-12-18T01:50:58;101.75;;;39.90;;
61806;SDS011;47726;52.766;6.606;2022-12-18T01:53:25;97.05;;;39.05;;
61806;SDS011;47726;52.766;6.606;2022-12-18T01:55:52;99.53;;;39.88;;
61806;SDS011;47726;52.766;6.606;2022-12-18T01:58:20;105.28;;;40.05;;
61806;SDS011;47726;52.766;6.606;2022-12-18T02:00:54;106.70;;;40.90;;
61806;SDS011;47726;52.766;6.606;2022-12-18T02:03:20;110.50;;;40.65;;
61806;SDS011;47726;52.766;6.606;2022-12-18T02:05:52;103.15;;;39.83;;
61806;SDS011;47726;52.766;6.606;2022-12-18T02:22:41;106.10;;;38.78;;
61806;SDS011;47726;52.766;6.606;2022-12-18T02:25:35;105.18;;;39.75;;
61806;SDS011;47726;52.766;6.606;2022-12-18T02:28:23;96.82;;;38.25;;
61806;SDS011;47726;52.766;6.606;2022-12-18T02:30:53;95.97;;;38.83;;
61806;SDS011;47726;52.766;6.606;2022-12-18T02:33:23;94.25;;;38.63;;
61806;SDS011;47726;52.766;6.606;2022-12-18T02:35:52;94.18;;;38.30;;
61806;SDS011;47726;52.766;6.606;2022-12-18T02:38:20;97.88;;;39.15;;
61806;SDS011;47726;52.766;6.606;2022-12-18T02:40:46;95.55;;;39.20;;
61806;SDS011;47726;52.766;6.606;2022-12-18T02:43:15;94.75;;;39.15;;
61806;SDS011;47726;52.766;6.606;2022-12-18T02:46:42;107.18;;;39.60;;
61806;SDS011;47726;52.766;6.606;2022-12-18T02:48:57;92.78;;;36.17;;
61806;SDS011;47726;52.766;6.606;2022-12-18T02:51:38;96.47;;;38.90;;
61806;SDS011;47726;52.766;6.606;2022-12-18T02:54:16;87.00;;;36.72;;
61806;SDS011;47726;52.766;6.606;2022-12-18T02:56:55;101.38;;;38.42;;
61806;SDS011;47726;52.766;6.606;2022-12-18T02:59:33;92.93;;;38.63;;
61806;SDS011;47726;52.766;6.606;2022-12-18T03:02:23;95.47;;;39.67;;
61806;SDS011;47726;52.766;6.606;2022-12-18T03:05:07;99.80;;;37.22;;
61806;SDS011;47726;52.766;6.606;2022-12-18T03:10:32;94.15;;;37.80;;
61806;SDS011;47726;52.766;6.606;2022-12-18T03:15:38;93.43;;;36.67;;
61806;SDS011;47726;52.766;6.606;2022-12-18T03:18:17;94.90;;;36.50;;
61806;SDS011;47726;52.766;6.606;2022-12-18T03:20:49;88.60;;;36.63;;
61806;SDS011;47726;52.766;6.606;2022-12-18T03:23:21;89.78;;;37.95;;
61806;SDS011;47726;52.766;6.606;2022-12-18T03:25:50;96.40;;;37.92;;
61806;SDS011;47726;52.766;6.606;2022-12-18T03:28:21;89.50;;;36.92;;
61806;SDS011;47726;52.766;6.606;2022-12-18T03:30:49;88.70;;;37.33;;
61806;SDS011;47726;52.766;6.606;2022-12-18T03:33:19;92.85;;;37.70;;
61806;SDS011;47726;52.766;6.606;2022-12-18T03:35:49;88.85;;;37.88;;
61806;SDS011;47726;52.766;6.606;2022-12-18T03:38:15;84.40;;;35.45;;
61806;SDS011;47726;52.766;6.606;2022-12-18T03:43:20;88.47;;;35.63;;
61806;SDS011;47726;52.766;6.606;2022-12-18T03:48:52;83.20;;;34.90;;
61806;SDS011;47726;52.766;6.606;2022-12-18T03:51:50;78.03;;;35.55;;
61806;SDS011;47726;52.766;6.606;2022-12-18T03:54:19;77.78;;;33.88;;
61806;SDS011;47726;52.766;6.606;2022-12-18T03:56:47;69.75;;;32.70;;
61806;SDS011;47726;52.766;6.606;2022-12-18T03:59:17;74.68;;;33.75;;
61806;SDS011;47726;52.766;6.606;2022-12-18T04:01:48;74.85;;;31.77;;
61806;SDS011;47726;52.766;6.606;2022-12-18T04:04:17;68.63;;;31.80;;
61806;SDS011;47726;52.766;6.606;2022-12-18T04:06:45;68.28;;;31.88;;
61806;SDS011;47726;52.766;6.606;2022-12-18T04:09:13;68.18;;;32.40;;
61806;SDS011;47726;52.766;6.606;2022-12-18T04:11:39;68.00;;;32.20;;
61806;SDS011;47726;52.766;6.606;2022-12-18T04:14:07;67.93;;;31.58;;
61806;SDS011;47726;52.766;6.606;2022-12-18T04:16:32;69.68;;;30.63;;
61806;SDS011;47726;52.766;6.606;2022-12-18T04:18:58;68.43;;;30.73;;
61806;SDS011;47726;52.766;6.606;2022-12-18T04:21:24;62.78;;;30.15;;
61806;SDS011;47726;52.766;6.606;2022-12-18T04:23:49;60.90;;;29.67;;
61806;SDS011;47726;52.766;6.606;2022-12-18T04:26:15;59.72;;;29.95;;
61806;SDS011;47726;52.766;6.606;2022-12-18T04:28:41;57.65;;;29.40;;
61806;SDS011;47726;52.766;6.606;2022-12-18T04:31:06;61.45;;;29.35;;
61806;SDS011;47726;52.766;6.606;2022-12-18T04:33:32;61.42;;;29.58;;
61806;SDS011;47726;52.766;6.606;2022-12-18T04:35:57;61.42;;;29.98;;
61806;SDS011;47726;52.766;6.606;2022-12-18T04:38:23;59.53;;;28.75;;
61806;SDS011;47726;52.766;6.606;2022-12-18T04:40:49;60.88;;;29.67;;
61806;SDS011;47726;52.766;6.606;2022-12-18T04:43:14;55.75;;;27.75;;
61806;SDS011;47726;52.766;6.606;2022-12-18T04:45:40;53.20;;;27.33;;
61806;SDS011;47726;52.766;6.606;2022-12-18T04:48:05;59.00;;;27.65;;
61806;SDS011;47726;52.766;6.606;2022-12-18T04:50:31;53.47;;;27.27;;
61806;SDS011;47726;52.766;6.606;2022-12-18T04:52:57;54.17;;;27.67;;
61806;SDS011;47726;52.766;6.606;2022-12-18T04:55:23;55.50;;;27.20;;
61806;SDS011;47726;52.766;6.606;2022-12-18T04:57:51;52.17;;;26.70;;
61806;SDS011;47726;52.766;6.606;2022-12-18T05:00:17;54.65;;;26.90;;
61806;SDS011;47726;52.766;6.606;2022-12-18T05:02:43;48.53;;;26.40;;
61806;SDS011;47726;52.766;6.606;2022-12-18T05:05:09;49.80;;;25.90;;
61806;SDS011;47726;52.766;6.606;2022-12-18T05:07:34;47.30;;;25.38;;
61806;SDS011;47726;52.766;6.606;2022-12-18T05:10:00;48.80;;;25.30;;
61806;SDS011;47726;52.766;6.606;2022-12-18T05:12:26;52.00;;;26.17;;
61806;SDS011;47726;52.766;6.606;2022-12-18T05:14:51;49.17;;;25.98;;
61806;SDS011;47726;52.766;6.606;2022-12-18T05:17:17;53.28;;;26.15;;
61806;SDS011;47726;52.766;6.606;2022-12-18T05:19:43;52.53;;;25.75;;
61806;SDS011;47726;52.766;6.606;2022-12-18T05:22:09;50.00;;;25.98;;
61806;SDS011;47726;52.766;6.606;2022-12-18T05:24:34;51.85;;;26.30;;
61806;SDS011;47726;52.766;6.606;2022-12-18T05:27:00;43.65;;;23.60;;
61806;SDS011;47726;52.766;6.606;2022-12-18T05:29:26;46.75;;;23.95;;
61806;SDS011;47726;52.766;6.606;2022-12-18T05:31:52;48.47;;;24.25;;
61806;SDS011;47726;52.766;6.606;2022-12-18T05:34:17;45.40;;;23.85;;
61806;SDS011;47726;52.766;6.606;2022-12-18T05:36:43;44.53;;;23.63;;
61806;SDS011;47726;52.766;6.606;2022-12-18T05:39:09;45.03;;;23.35;;
61806;SDS011;47726;52.766;6.606;2022-12-18T05:41:34;51.45;;;24.02;;
61806;SDS011;47726;52.766;6.606;2022-12-18T05:44:00;47.53;;;24.27;;
61806;SDS011;47726;52.766;6.606;2022-12-18T05:46:25;46.15;;;24.35;;
61806;SDS011;47726;52.766;6.606;2022-12-18T05:48:51;40.05;;;22.70;;
61806;SDS011;47726;52.766;6.606;2022-12-18T05:51:18;44.45;;;23.88;;
61806;SDS011;47726;52.766;6.606;2022-12-18T05:53:45;43.97;;;23.30;;
61806;SDS011;47726;52.766;6.606;2022-12-18T05:56:12;43.33;;;23.63;;
61806;SDS011;47726;52.766;6.606;2022-12-18T05:58:39;45.17;;;23.88;;
61806;SDS011;47726;52.766;6.606;2022-12-18T06:01:17;46.25;;;23.17;;
61806;SDS011;47726;52.766;6.606;2022-12-18T06:03:44;46.83;;;24.20;;
61806;SDS011;47726;52.766;6.606;2022-12-18T06:06:18;48.83;;;24.00;;
61806;SDS011;47726;52.766;6.606;2022-12-18T06:08:45;45.85;;;23.60;;
61806;SDS011;47726;52.766;6.606;2022-12-18T06:11:12;45.00;;;21.95;;
61806;SDS011;47726;52.766;6.606;2022-12-18T06:13:38;41.95;;;22.88;;
61806;SDS011;47726;52.766;6.606;2022-12-18T06:16:04;47.38;;;22.95;;
61806;SDS011;47726;52.766;6.606;2022-12-18T06:18:31;46.55;;;23.38;;
61806;SDS011;47726;52.766;6.606;2022-12-18T06:20:57;47.22;;;23.55;;
61806;SDS011;47726;52.766;6.606;2022-12-18T06:23:24;49.70;;;23.60;;
61806;SDS011;47726;52.766;6.606;2022-12-18T06:25:50;43.22;;;23.33;;
61806;SDS011;47726;52.766;6.606;2022-12-18T06:28:15;45.40;;;23.85;;
61806;SDS011;47726;52.766;6.606;2022-12-18T06:30:44;43.70;;;22.75;;
61806;SDS011;47726;52.766;6.606;2022-12-18T06:33:11;45.08;;;23.30;;
61806;SDS011;47726;52.766;6.606;2022-12-18T06:35:36;44.45;;;22.08;;
61806;SDS011;47726;52.766;6.606;2022-12-18T06:38:02;41.42;;;22.02;;
61806;SDS011;47726;52.766;6.606;2022-12-18T06:40:28;44.25;;;23.73;;
61806;SDS011;47726;52.766;6.606;2022-12-18T06:42:54;45.75;;;22.98;;
61806;SDS011;47726;52.766;6.606;2022-12-18T06:45:19;42.88;;;23.17;;
61806;SDS011;47726;52.766;6.606;2022-12-18T06:47:45;44.25;;;23.50;;
61806;SDS011;47726;52.766;6.606;2022-12-18T06:50:11;43.03;;;23.33;;
61806;SDS011;47726;52.766;6.606;2022-12-18T06:52:37;44.17;;;23.00;;
61806;SDS011;47726;52.766;6.606;2022-12-18T06:55:05;42.85;;;23.55;;
61806;SDS011;47726;52.766;6.606;2022-12-18T06:57:35;44.92;;;22.65;;
61806;SDS011;47726;52.766;6.606;2022-12-18T07:00:01;41.72;;;22.85;;
61806;SDS011;47726;52.766;6.606;2022-12-18T07:02:27;42.92;;;22.35;;
61806;SDS011;47726;52.766;6.606;2022-12-18T07:04:53;39.17;;;21.52;;
61806;SDS011;47726;52.766;6.606;2022-12-18T07:07:19;43.17;;;22.08;;
61806;SDS011;47726;52.766;6.606;2022-12-18T07:09:44;39.63;;;21.65;;
61806;SDS011;47726;52.766;6.606;2022-12-18T07:12:10;39.05;;;22.45;;
61806;SDS011;47726;52.766;6.606;2022-12-18T07:14:35;42.95;;;21.55;;
61806;SDS011;47726;52.766;6.606;2022-12-18T07:17:01;42.53;;;20.92;;
61806;SDS011;47726;52.766;6.606;2022-12-18T07:19:27;38.38;;;20.80;;
61806;SDS011;47726;52.766;6.606;2022-12-18T07:21:52;40.65;;;20.98;;
61806;SDS011;47726;52.766;6.606;2022-12-18T07:24:18;37.60;;;20.85;;
61806;SDS011;47726;52.766;6.606;2022-12-18T07:26:45;40.25;;;20.10;;
61806;SDS011;47726;52.766;6.606;2022-12-18T07:29:11;41.22;;;21.08;;
61806;SDS011;47726;52.766;6.606;2022-12-18T07:31:38;38.13;;;20.85;;
61806;SDS011;47726;52.766;6.606;2022-12-18T07:34:03;39.00;;;20.80;;
61806;SDS011;47726;52.766;6.606;2022-12-18T07:36:29;39.63;;;20.88;;
61806;SDS011;47726;52.766;6.606;2022-12-18T07:38:54;36.40;;;20.65;;
61806;SDS011;47726;52.766;6.606;2022-12-18T07:41:21;41.03;;;21.25;;
61806;SDS011;47726;52.766;6.606;2022-12-18T07:43:47;37.60;;;19.40;;
61806;SDS011;47726;52.766;6.606;2022-12-18T07:46:13;35.88;;;20.30;;
61806;SDS011;47726;52.766;6.606;2022-12-18T07:48:40;36.75;;;20.67;;
61806;SDS011;47726;52.766;6.606;2022-12-18T07:51:06;39.97;;;21.60;;
61806;SDS011;47726;52.766;6.606;2022-12-18T07:53:33;35.90;;;19.98;;
61806;SDS011;47726;52.766;6.606;2022-12-18T07:56:04;35.80;;;19.88;;
61806;SDS011;47726;52.766;6.606;2022-12-18T07:58:34;35.17;;;19.83;;
61806;SDS011;47726;52.766;6.606;2022-12-18T08:01:11;34.58;;;20.05;;
61806;SDS011;47726;52.766;6.606;2022-12-18T08:03:37;33.63;;;18.55;;
61806;SDS011;47726;52.766;6.606;2022-12-18T08:06:05;31.58;;;18.80;;
61806;SDS011;47726;52.766;6.606;2022-12-18T08:08:33;37.40;;;20.90;;
61806;SDS011;47726;52.766;6.606;2022-12-18T08:10:59;35.53;;;21.08;;
61806;SDS011;47726;52.766;6.606;2022-12-18T08:13:26;36.90;;;21.13;;
61806;SDS011;47726;52.766;6.606;2022-12-18T08:15:55;35.70;;;20.42;;
61806;SDS011;47726;52.766;6.606;2022-12-18T08:18:26;35.45;;;20.45;;
61806;SDS011;47726;52.766;6.606;2022-12-18T08:20:51;38.30;;;19.65;;
61806;SDS011;47726;52.766;6.606;2022-12-18T08:23:17;33.67;;;20.85;;
61806;SDS011;47726;52.766;6.606;2022-12-18T08:25:43;33.20;;;18.88;;
61806;SDS011;47726;52.766;6.606;2022-12-18T08:28:09;36.35;;;19.55;;
61806;SDS011;47726;52.766;6.606;2022-12-18T08:30:35;31.38;;;18.77;;
61806;SDS011;47726;52.766;6.606;2022-12-18T08:33:01;33.03;;;19.75;;
61806;SDS011;47726;52.766;6.606;2022-12-18T08:35:26;32.05;;;19.02;;
61806;SDS011;47726;52.766;6.606;2022-12-18T08:37:53;31.60;;;18.08;;
61806;SDS011;47726;52.766;6.606;2022-12-18T08:40:18;31.55;;;18.40;;
61806;SDS011;47726;52.766;6.606;2022-12-18T08:42:44;33.03;;;18.70;;
61806;SDS011;47726;52.766;6.606;2022-12-18T08:45:28;31.10;;;18.42;;
61806;SDS011;47726;52.766;6.606;2022-12-18T08:47:54;30.05;;;17.63;;
61806;SDS011;47726;52.766;6.606;2022-12-18T08:50:20;29.45;;;18.42;;
61806;SDS011;47726;52.766;6.606;2022-12-18T08:52:46;30.23;;;18.00;;
61806;SDS011;47726;52.766;6.606;2022-12-18T08:55:11;34.78;;;19.40;;
61806;SDS011;47726;52.766;6.606;2022-12-18T08:57:37;43.05;;;23.55;;
61806;SDS011;47726;52.766;6.606;2022-12-18T09:00:03;48.03;;;25.40;;
61806;SDS011;47726;52.766;6.606;2022-12-18T09:02:30;42.95;;;22.42;;
61806;SDS011;47726;52.766;6.606;2022-12-18T09:04:55;38.05;;;22.80;;
61806;SDS011;47726;52.766;6.606;2022-12-18T09:07:21;34.72;;;20.48;;
61806;SDS011;47726;52.766;6.606;2022-12-18T09:09:47;35.33;;;20.33;;
61806;SDS011;47726;52.766;6.606;2022-12-18T09:12:12;31.02;;;19.42;;
61806;SDS011;47726;52.766;6.606;2022-12-18T09:14:38;32.35;;;18.63;;
61806;SDS011;47726;52.766;6.606;2022-12-18T09:17:03;31.35;;;19.30;;
61806;SDS011;47726;52.766;6.606;2022-12-18T09:19:29;31.23;;;18.23;;
61806;SDS011;47726;52.766;6.606;2022-12-18T09:21:55;28.05;;;17.38;;
61806;SDS011;47726;52.766;6.606;2022-12-18T09:24:20;26.10;;;16.35;;
61806;SDS011;47726;52.766;6.606;2022-12-18T09:26:52;27.88;;;16.83;;
61806;SDS011;47726;52.766;6.606;2022-12-18T09:29:19;28.77;;;17.48;;
61806;SDS011;47726;52.766;6.606;2022-12-18T09:31:45;27.85;;;17.92;;
61806;SDS011;47726;52.766;6.606;2022-12-18T09:34:11;26.08;;;15.95;;
61806;SDS011;47726;52.766;6.606;2022-12-18T09:36:37;26.95;;;17.42;;
61806;SDS011;47726;52.766;6.606;2022-12-18T09:39:03;26.00;;;16.27;;
61806;SDS011;47726;52.766;6.606;2022-12-18T09:41:35;25.50;;;15.90;;
61806;SDS011;47726;52.766;6.606;2022-12-18T09:47:01;23.92;;;15.32;;
61806;SDS011;47726;52.766;6.606;2022-12-18T09:49:35;25.40;;;14.70;;
61806;SDS011;47726;52.766;6.606;2022-12-18T09:52:11;23.95;;;14.77;;
61806;SDS011;47726;52.766;6.606;2022-12-18T09:55:10;26.52;;;15.55;;
61806;SDS011;47726;52.766;6.606;2022-12-18T09:57:53;23.67;;;14.25;;
61806;SDS011;47726;52.766;6.606;2022-12-18T10:00:23;22.77;;;14.13;;
61806;SDS011;47726;52.766;6.606;2022-12-18T10:02:56;22.95;;;13.70;;
61806;SDS011;47726;52.766;6.606;2022-12-18T10:10:54;22.15;;;14.27;;
61806;SDS011;47726;52.766;6.606;2022-12-18T10:21:03;19.98;;;13.38;;
61806;SDS011;47726;52.766;6.606;2022-12-18T10:26:38;20.77;;;13.43;;
61806;SDS011;47726;52.766;6.606;2022-12-18T10:29:10;21.17;;;13.48;;
61806;SDS011;47726;52.766;6.606;2022-12-18T10:31:38;18.60;;;12.65;;
61806;SDS011;47726;52.766;6.606;2022-12-18T10:34:04;23.50;;;13.20;;
61806;SDS011;47726;52.766;6.606;2022-12-18T10:36:34;19.48;;;12.77;;
61806;SDS011;47726;52.766;6.606;2022-12-18T10:41:41;19.30;;;12.43;;
61806;SDS011;47726;52.766;6.606;2022-12-18T10:44:17;20.40;;;12.95;;
61806;SDS011;47726;52.766;6.606;2022-12-18T10:46:45;18.13;;;11.70;;
61806;SDS011;47726;52.766;6.606;2022-12-18T10:49:19;17.80;;;11.82;;
61806;SDS011;47726;52.766;6.606;2022-12-18T10:52:05;18.42;;;11.25;;
61806;SDS011;47726;52.766;6.606;2022-12-18T10:54:59;19.90;;;12.35;;
61806;SDS011;47726;52.766;6.606;2022-12-18T10:57:33;18.10;;;11.95;;
61806;SDS011;47726;52.766;6.606;2022-12-18T11:00:23;17.50;;;11.35;;
61806;SDS011;47726;52.766;6.606;2022-12-18T11:02:47;18.52;;;11.73;;
61806;SDS011;47726;52.766;6.606;2022-12-18T11:08:11;15.73;;;10.82;;
61806;SDS011;47726;52.766;6.606;2022-12-18T11:10:46;18.45;;;11.50;;
61806;SDS011;47726;52.766;6.606;2022-12-18T11:13:14;16.13;;;10.85;;
61806;SDS011;47726;52.766;6.606;2022-12-18T11:15:43;18.25;;;11.40;;
61806;SDS011;47726;52.766;6.606;2022-12-18T11:18:27;16.10;;;10.98;;
61806;SDS011;47726;52.766;6.606;2022-12-18T11:20:56;17.75;;;10.40;;
61806;SDS011;47726;52.766;6.606;2022-12-18T11:23:22;18.05;;;10.57;;
61806;SDS011;47726;52.766;6.606;2022-12-18T11:26:02;14.60;;;9.98;;
61806;SDS011;47726;52.766;6.606;2022-12-18T11:31:16;12.98;;;9.20;;
61806;SDS011;47726;52.766;6.606;2022-12-18T11:36:31;14.02;;;8.90;;
61806;SDS011;47726;52.766;6.606;2022-12-18T11:39:02;12.73;;;8.70;;
61806;SDS011;47726;52.766;6.606;2022-12-18T11:44:48;14.85;;;8.60;;
61806;SDS011;47726;52.766;6.606;2022-12-18T11:47:33;12.57;;;8.35;;
61806;SDS011;47726;52.766;6.606;2022-12-18T11:50:10;13.00;;;8.10;;
61806;SDS011;47726;52.766;6.606;2022-12-18T11:52:40;11.95;;;8.40;;
61806;SDS011;47726;52.766;6.606;2022-12-18T11:55:14;10.77;;;7.88;;
61806;SDS011;47726;52.766;6.606;2022-12-18T12:00:25;13.07;;;8.35;;
61806;SDS011;47726;52.766;6.606;2022-12-18T12:08:33;14.15;;;8.27;;
61806;SDS011;47726;52.766;6.606;2022-12-18T12:16:41;14.35;;;8.15;;
61806;SDS011;47726;52.766;6.606;2022-12-18T12:19:46;13.63;;;9.18;;
61806;SDS011;47726;52.766;6.606;2022-12-18T12:22:18;15.50;;;9.82;;
61806;SDS011;47726;52.766;6.606;2022-12-18T12:33:43;13.88;;;8.98;;
61806;SDS011;47726;52.766;6.606;2022-12-18T12:36:30;12.57;;;8.43;;
61806;SDS011;47726;52.766;6.606;2022-12-18T12:39:00;12.95;;;8.63;;
61806;SDS011;47726;52.766;6.606;2022-12-18T12:41:30;11.77;;;8.38;;
61806;SDS011;47726;52.766;6.606;2022-12-18T12:44:19;12.80;;;8.75;;
61806;SDS011;47726;52.766;6.606;2022-12-18T12:46:56;13.25;;;8.10;;
61806;SDS011;47726;52.766;6.606;2022-12-18T12:49:31;16.15;;;8.93;;
61806;SDS011;47726;52.766;6.606;2022-12-18T12:51:59;14.30;;;8.75;;
61806;SDS011;47726;52.766;6.606;2022-12-18T12:54:31;13.70;;;8.30;;
61806;SDS011;47726;52.766;6.606;2022-12-18T12:57:07;12.48;;;8.15;;
61806;SDS011;47726;52.766;6.606;2022-12-18T13:08:12;13.25;;;8.23;;
61806;SDS011;47726;52.766;6.606;2022-12-18T13:10:52;13.15;;;8.57;;
61806;SDS011;47726;52.766;6.606;2022-12-18T13:13:52;12.35;;;8.63;;
61806;SDS011;47726;52.766;6.606;2022-12-18T13:16:21;13.70;;;8.30;;
61806;SDS011;47726;52.766;6.606;2022-12-18T13:18:51;12.98;;;8.23;;
61806;SDS011;47726;52.766;6.606;2022-12-18T13:21:36;13.05;;;8.65;;
61806;SDS011;47726;52.766;6.606;2022-12-18T13:27:00;14.15;;;9.23;;
61806;SDS011;47726;52.766;6.606;2022-12-18T13:29:45;13.55;;;8.70;;
61806;SDS011;47726;52.766;6.606;2022-12-18T13:32:24;14.93;;;9.27;;
61806;SDS011;47726;52.766;6.606;2022-12-18T13:37:54;14.38;;;9.68;;
61806;SDS011;47726;52.766;6.606;2022-12-18T13:43:15;14.15;;;9.20;;
61806;SDS011;47726;52.766;6.606;2022-12-18T13:48:41;14.30;;;9.43;;
61806;SDS011;47726;52.766;6.606;2022-12-18T13:51:26;13.93;;;9.15;;
61806;SDS011;47726;52.766;6.606;2022-12-18T13:56:28;13.25;;;9.13;;
61806;SDS011;47726;52.766;6.606;2022-12-18T14:01:50;13.77;;;9.70;;
61806;SDS011;47726;52.766;6.606;2022-12-18T14:04:34;16.08;;;11.10;;
61806;SDS011;47726;52.766;6.606;2022-12-18T14:09:33;18.10;;;11.43;;
61806;SDS011;47726;52.766;6.606;2022-12-18T14:12:02;16.70;;;10.60;;
61806;SDS011;47726;52.766;6.606;2022-12-18T14:14:47;13.48;;;9.93;;
61806;SDS011;47726;52.766;6.606;2022-12-18T14:17:16;15.88;;;10.73;;
61806;SDS011;47726;52.766;6.606;2022-12-18T14:19:46;15.07;;;9.95;;
61806;SDS011;47726;52.766;6.606;2022-12-18T14:22:16;14.80;;;10.07;;
61806;SDS011;47726;52.766;6.606;2022-12-18T14:24:47;14.20;;;10.07;;
61806;SDS011;47726;52.766;6.606;2022-12-18T14:27:36;15.77;;;10.45;;
61806;SDS011;47726;52.766;6.606;2022-12-18T14:30:16;14.90;;;9.70;;
61806;SDS011;47726;52.766;6.606;2022-12-18T14:35:31;13.88;;;9.50;;
61806;SDS011;47726;52.766;6.606;2022-12-18T14:40:46;14.88;;;9.25;;
61806;SDS011;47726;52.766;6.606;2022-12-18T14:43:12;14.27;;;9.75;;
61806;SDS011;47726;52.766;6.606;2022-12-18T14:45:44;15.38;;;9.25;;
61806;SDS011;47726;52.766;6.606;2022-12-18T14:50:45;14.75;;;10.73;;
61806;SDS011;47726;52.766;6.606;2022-12-18T14:53:31;17.48;;;12.60;;
61806;SDS011;47726;52.766;6.606;2022-12-18T14:55:57;17.58;;;12.68;;
61806;SDS011;47726;52.766;6.606;2022-12-18T14:58:23;16.38;;;11.90;;
61806;SDS011;47726;52.766;6.606;2022-12-18T15:00:49;15.27;;;11.43;;
61806;SDS011;47726;52.766;6.606;2022-12-18T15:03:17;15.75;;;11.30;;
61806;SDS011;47726;52.766;6.606;2022-12-18T15:05:45;17.85;;;11.57;;
61806;SDS011;47726;52.766;6.606;2022-12-18T15:08:32;17.83;;;11.50;;
61806;SDS011;47726;52.766;6.606;2022-12-18T15:11:00;16.77;;;11.57;;
61806;SDS011;47726;52.766;6.606;2022-12-18T15:13:27;16.73;;;11.07;;
61806;SDS011;47726;52.766;6.606;2022-12-18T15:15:53;17.15;;;11.23;;
61806;SDS011;47726;52.766;6.606;2022-12-18T15:18:21;17.23;;;12.00;;
61806;SDS011;47726;52.766;6.606;2022-12-18T15:20:57;16.25;;;11.45;;
61806;SDS011;47726;52.766;6.606;2022-12-18T15:28:32;16.40;;;11.43;;
61806;SDS011;47726;52.766;6.606;2022-12-18T15:33:38;18.35;;;11.32;;
61806;SDS011;47726;52.766;6.606;2022-12-18T15:36:14;16.77;;;11.55;;
61806;SDS011;47726;52.766;6.606;2022-12-18T15:38:41;16.20;;;10.95;;
61806;SDS011;47726;52.766;6.606;2022-12-18T15:41:14;18.45;;;12.38;;
61806;SDS011;47726;52.766;6.606;2022-12-18T15:43:42;17.40;;;11.45;;
61806;SDS011;47726;52.766;6.606;2022-12-18T15:46:15;17.73;;;11.70;;
61806;SDS011;47726;52.766;6.606;2022-12-18T15:48:45;18.05;;;11.77;;
61806;SDS011;47726;52.766;6.606;2022-12-18T15:53:49;19.05;;;12.50;;
61806;SDS011;47726;52.766;6.606;2022-12-18T15:56:19;19.25;;;12.48;;
61806;SDS011;47726;52.766;6.606;2022-12-18T15:59:04;19.77;;;13.50;;
61806;SDS011;47726;52.766;6.606;2022-12-18T16:01:38;18.23;;;12.50;;
61806;SDS011;47726;52.766;6.606;2022-12-18T16:04:05;20.83;;;13.20;;
61806;SDS011;47726;52.766;6.606;2022-12-18T16:06:31;21.33;;;13.07;;
61806;SDS011;47726;52.766;6.606;2022-12-18T16:08:56;18.60;;;13.07;;
61806;SDS011;47726;52.766;6.606;2022-12-18T16:19:14;19.58;;;12.98;;
61806;SDS011;47726;52.766;6.606;2022-12-18T16:21:41;20.13;;;13.60;;
61806;SDS011;47726;52.766;6.606;2022-12-18T16:24:17;20.80;;;13.50;;
61806;SDS011;47726;52.766;6.606;2022-12-18T16:26:47;20.45;;;12.88;;
61806;SDS011;47726;52.766;6.606;2022-12-18T16:29:13;20.50;;;13.75;;
61806;SDS011;47726;52.766;6.606;2022-12-18T16:31:39;19.10;;;13.40;;
61806;SDS011;47726;52.766;6.606;2022-12-18T16:34:21;19.90;;;13.82;;
61806;SDS011;47726;52.766;6.606;2022-12-18T16:36:50;19.65;;;13.52;;
61806;SDS011;47726;52.766;6.606;2022-12-18T16:39:16;21.48;;;13.18;;
61806;SDS011;47726;52.766;6.606;2022-12-18T16:41:42;20.90;;;13.57;;
61806;SDS011;47726;52.766;6.606;2022-12-18T16:44:08;19.23;;;13.43;;
61806;SDS011;47726;52.766;6.606;2022-12-18T16:46:35;19.92;;;13.40;;
61806;SDS011;47726;52.766;6.606;2022-12-18T16:49:01;20.20;;;13.60;;
61806;SDS011;47726;52.766;6.606;2022-12-18T16:51:27;18.88;;;13.35;;
61806;SDS011;47726;52.766;6.606;2022-12-18T16:53:54;22.23;;;14.02;;
61806;SDS011;47726;52.766;6.606;2022-12-18T16:56:20;20.50;;;13.30;;
61806;SDS011;47726;52.766;6.606;2022-12-18T16:58:52;20.08;;;13.55;;